CFG5MK EDDH-EDDF
Flight info
| Callsign | CFG5MK |
|---|---|
| Flight time | 0h 48m |
| Altitude | 31000 |
| Route | AMLUH2G AMLUH M852 DENIX DCT RIMET T157 KERAX KERAX5A |
| Aircraft | A321/M-SDE3FGHIRWY/LB1 |
Departure
| Time | 2026-05-04 13:43 |
|---|---|
| Airport | Hamburg Helmut Schmidt Airport (EDDH) |
Arrival
| Time | 2026-05-04 14:32 |
|---|---|
| Airport | Frankfurt Main Airport (EDDF) |
| Time | Latitude | Longitude | Altitude | Speed | Heading |
|---|---|---|---|---|---|
| 2026-05-04 13:08 | 53.62889 | 10.00219 | 49 ft | 0 kts | 121° |
| 2026-05-04 13:35 | 53.62899 | 10.00192 | 45 ft | 4 kts | 124° |
| 2026-05-04 13:36 | 53.62911 | 10.00161 | 46 ft | 4 kts | 126° |
| 2026-05-04 13:36 | 53.62930 | 10.00133 | 43 ft | 4 kts | 165° |
| 2026-05-04 13:36 | 53.62949 | 10.00134 | 44 ft | 1 kts | 212° |
| 2026-05-04 13:36 | 53.62949 | 10.00135 | 44 ft | 0 kts | 212° |
| 2026-05-04 13:41 | 53.62947 | 10.00132 | 48 ft | 2 kts | 212° |
| 2026-05-04 13:41 | 53.62929 | 10.00112 | 48 ft | 3 kts | 212° |
| 2026-05-04 13:41 | 53.62904 | 10.00085 | 47 ft | 7 kts | 214° |
| 2026-05-04 13:42 | 53.62824 | 9.99890 | 46 ft | 11 kts | 243° |
| 2026-05-04 13:42 | 53.62806 | 9.99823 | 43 ft | 4 kts | 259° |
| 2026-05-04 13:42 | 53.62817 | 9.99792 | 45 ft | 4 kts | 320° |
| 2026-05-04 13:42 | 53.62861 | 9.99752 | 44 ft | 16 kts | 332° |
| 2026-05-04 13:43 | 53.63149 | 9.99501 | 46 ft | 82 kts | 333° |
| 2026-05-04 13:43 | 53.63861 | 9.98884 | 50 ft | 142 kts | 333° |
| 2026-05-04 13:43 | 53.64847 | 9.98022 | 324 ft | 164 kts | 332° |
| 2026-05-04 13:43 | 53.65862 | 9.97157 | 1032 ft | 164 kts | 331° |
| 2026-05-04 13:44 | 53.66892 | 9.96280 | 1678 ft | 168 kts | 331° |
| 2026-05-04 13:44 | 53.67945 | 9.95386 | 2177 ft | 176 kts | 330° |
| 2026-05-04 13:44 | 53.69130 | 9.94595 | 2617 ft | 189 kts | 346° |
| 2026-05-04 13:44 | 53.70481 | 9.94446 | 3095 ft | 198 kts | 355° |
| 2026-05-04 13:45 | 53.71877 | 9.94498 | 3610 ft | 205 kts | 4° |
| 2026-05-04 13:45 | 53.73178 | 9.95592 | 4074 ft | 220 kts | 43° |
| 2026-05-04 13:45 | 53.73896 | 9.97906 | 4557 ft | 230 kts | 74° |
| 2026-05-04 13:45 | 53.74242 | 10.00583 | 4981 ft | 238 kts | 79° |
| 2026-05-04 13:46 | 53.74276 | 10.03447 | 5292 ft | 254 kts | 100° |
| 2026-05-04 13:46 | 53.73687 | 10.06366 | 5708 ft | 270 kts | 121° |
| 2026-05-04 13:46 | 53.72691 | 10.09120 | 6390 ft | 279 kts | 124° |
| 2026-05-04 13:46 | 53.71626 | 10.11905 | 7088 ft | 285 kts | 125° |
| 2026-05-04 13:47 | 53.70546 | 10.14747 | 7845 ft | 291 kts | 125° |
| 2026-05-04 13:47 | 53.69404 | 10.17587 | 8619 ft | 293 kts | 132° |
| 2026-05-04 13:47 | 53.67950 | 10.19996 | 9382 ft | 294 kts | 146° |
| 2026-05-04 13:47 | 53.66186 | 10.21694 | 10136 ft | 293 kts | 162° |
| 2026-05-04 13:48 | 53.64242 | 10.22697 | 10858 ft | 294 kts | 169° |
| 2026-05-04 13:48 | 53.62224 | 10.23568 | 11367 ft | 305 kts | 170° |
| 2026-05-04 13:48 | 53.60121 | 10.24452 | 11863 ft | 317 kts | 169° |
| 2026-05-04 13:48 | 53.57940 | 10.25380 | 12317 ft | 331 kts | 169° |
| 2026-05-04 13:49 | 53.55668 | 10.26380 | 12751 ft | 344 kts | 169° |
| 2026-05-04 13:49 | 53.53316 | 10.27450 | 13233 ft | 354 kts | 168° |
| 2026-05-04 13:49 | 53.50916 | 10.28555 | 13860 ft | 360 kts | 168° |
| 2026-05-04 13:49 | 53.48489 | 10.29672 | 14478 ft | 364 kts | 168° |
| 2026-05-04 13:50 | 53.46038 | 10.30796 | 15137 ft | 366 kts | 169° |
| 2026-05-04 13:50 | 53.43570 | 10.31924 | 15780 ft | 369 kts | 169° |
| 2026-05-04 13:50 | 53.41086 | 10.33057 | 16435 ft | 371 kts | 169° |
| 2026-05-04 13:50 | 53.38556 | 10.34203 | 17072 ft | 374 kts | 170° |
| 2026-05-04 13:51 | 53.36037 | 10.35340 | 17714 ft | 376 kts | 170° |
| 2026-05-04 13:51 | 53.33499 | 10.36478 | 18330 ft | 379 kts | 170° |
| 2026-05-04 13:51 | 53.30945 | 10.37617 | 18862 ft | 381 kts | 171° |
| 2026-05-04 13:51 | 53.28381 | 10.38759 | 19365 ft | 383 kts | 170° |
| 2026-05-04 13:52 | 53.23200 | 10.41075 | 20439 ft | 387 kts | 170° |
| 2026-05-04 13:52 | 53.20588 | 10.42241 | 20953 ft | 390 kts | 171° |
| 2026-05-04 13:52 | 53.17967 | 10.43413 | 21467 ft | 392 kts | 171° |
| 2026-05-04 13:53 | 53.15322 | 10.44594 | 21980 ft | 394 kts | 172° |
| 2026-05-04 13:53 | 53.12633 | 10.45350 | 22467 ft | 390 kts | 181° |
| 2026-05-04 13:53 | 53.09937 | 10.45311 | 22959 ft | 386 kts | 190° |
| 2026-05-04 13:54 | 53.04554 | 10.44537 | 23854 ft | 391 kts | 190° |
| 2026-05-04 13:54 | 53.01834 | 10.44156 | 24264 ft | 393 kts | 190° |
| 2026-05-04 13:54 | 52.96354 | 10.43411 | 25089 ft | 398 kts | 190° |
| 2026-05-04 13:55 | 52.93587 | 10.43040 | 25500 ft | 400 kts | 190° |
| 2026-05-04 13:55 | 52.88011 | 10.42285 | 26288 ft | 404 kts | 191° |
| 2026-05-04 13:55 | 52.85202 | 10.41900 | 26675 ft | 406 kts | 191° |
| 2026-05-04 13:56 | 52.82385 | 10.41515 | 27062 ft | 408 kts | 191° |
| 2026-05-04 13:56 | 52.79545 | 10.41127 | 27435 ft | 410 kts | 191° |
| 2026-05-04 13:56 | 52.73830 | 10.40346 | 28232 ft | 413 kts | 191° |
| 2026-05-04 13:57 | 52.70916 | 10.39956 | 28600 ft | 415 kts | 191° |
| 2026-05-04 13:57 | 52.68074 | 10.39580 | 28950 ft | 417 kts | 191° |
| 2026-05-04 13:58 | 52.59291 | 10.38398 | 29967 ft | 423 kts | 191° |
| 2026-05-04 13:58 | 52.53415 | 10.37613 | 30454 ft | 423 kts | 191° |
| 2026-05-04 13:58 | 52.50481 | 10.37223 | 30702 ft | 422 kts | 191° |
| 2026-05-04 13:59 | 52.47553 | 10.36831 | 30908 ft | 422 kts | 191° |
| 2026-05-04 13:59 | 52.44635 | 10.36440 | 30967 ft | 422 kts | 191° |
| 2026-05-04 14:00 | 52.35862 | 10.35263 | 30972 ft | 421 kts | 191° |
| 2026-05-04 14:00 | 52.27105 | 10.34086 | 30975 ft | 422 kts | 190° |
| 2026-05-04 14:01 | 52.21244 | 10.33319 | 30972 ft | 422 kts | 190° |
| 2026-05-04 14:02 | 52.12454 | 10.32162 | 30969 ft | 423 kts | 190° |
| 2026-05-04 14:02 | 52.06585 | 10.31393 | 30956 ft | 423 kts | 190° |
| 2026-05-04 14:03 | 52.01668 | 10.30750 | 30965 ft | 423 kts | 190° |
| 2026-05-04 14:03 | 51.95810 | 10.29984 | 30964 ft | 422 kts | 190° |
| 2026-05-04 14:04 | 51.87022 | 10.28827 | 30944 ft | 423 kts | 189° |
| 2026-05-04 14:04 | 51.81136 | 10.28062 | 30934 ft | 424 kts | 189° |
| 2026-05-04 14:05 | 51.72298 | 10.26915 | 30943 ft | 425 kts | 189° |
| 2026-05-04 14:06 | 51.66393 | 10.26160 | 30945 ft | 426 kts | 189° |
| 2026-05-04 14:06 | 51.60484 | 10.25397 | 30943 ft | 426 kts | 189° |
| 2026-05-04 14:07 | 51.54585 | 10.24641 | 30940 ft | 426 kts | 189° |
| 2026-05-04 14:07 | 51.51627 | 10.24264 | 30828 ft | 426 kts | 189° |
| 2026-05-04 14:07 | 51.48677 | 10.23888 | 30545 ft | 424 kts | 189° |
| 2026-05-04 14:07 | 51.45744 | 10.23513 | 30111 ft | 421 kts | 189° |
| 2026-05-04 14:08 | 51.42845 | 10.23146 | 29518 ft | 417 kts | 188° |
| 2026-05-04 14:08 | 51.39961 | 10.22784 | 28853 ft | 414 kts | 188° |
| 2026-05-04 14:08 | 51.37106 | 10.22426 | 28192 ft | 411 kts | 188° |
| 2026-05-04 14:08 | 51.34265 | 10.22067 | 27542 ft | 408 kts | 188° |
| 2026-05-04 14:09 | 51.28638 | 10.21438 | 26344 ft | 399 kts | 194° |
| 2026-05-04 14:09 | 51.26056 | 10.20045 | 25918 ft | 387 kts | 208° |
| 2026-05-04 14:10 | 51.21289 | 10.16214 | 25139 ft | 378 kts | 209° |
| 2026-05-04 14:10 | 51.18941 | 10.14333 | 24758 ft | 377 kts | 208° |
| 2026-05-04 14:10 | 51.16601 | 10.12466 | 24375 ft | 375 kts | 208° |
| 2026-05-04 14:10 | 51.14269 | 10.10605 | 23999 ft | 374 kts | 208° |
| 2026-05-04 14:11 | 51.11951 | 10.08756 | 23625 ft | 372 kts | 208° |
| 2026-05-04 14:11 | 51.07336 | 10.05082 | 22761 ft | 369 kts | 208° |
| 2026-05-04 14:11 | 51.05047 | 10.03260 | 22357 ft | 367 kts | 208° |
| 2026-05-04 14:12 | 51.02770 | 10.01451 | 21963 ft | 365 kts | 208° |
| 2026-05-04 14:12 | 51.00510 | 9.99660 | 21568 ft | 363 kts | 208° |
| 2026-05-04 14:12 | 50.96065 | 9.96144 | 20771 ft | 351 kts | 208° |
| 2026-05-04 14:13 | 50.93882 | 9.94420 | 20355 ft | 350 kts | 208° |
| 2026-05-04 14:13 | 50.91710 | 9.92708 | 19943 ft | 348 kts | 208° |
| 2026-05-04 14:13 | 50.89545 | 9.91000 | 19514 ft | 346 kts | 207° |
| 2026-05-04 14:13 | 50.87391 | 9.89304 | 19086 ft | 345 kts | 207° |
| 2026-05-04 14:14 | 50.85247 | 9.87621 | 18668 ft | 343 kts | 207° |
| 2026-05-04 14:14 | 50.80962 | 9.84258 | 17741 ft | 340 kts | 207° |
| 2026-05-04 14:14 | 50.78847 | 9.82598 | 17334 ft | 339 kts | 207° |
| 2026-05-04 14:15 | 50.74649 | 9.79306 | 16489 ft | 335 kts | 207° |
| 2026-05-04 14:15 | 50.70502 | 9.76057 | 15676 ft | 331 kts | 207° |
| 2026-05-04 14:16 | 50.66391 | 9.72848 | 14858 ft | 328 kts | 207° |
| 2026-05-04 14:16 | 50.64349 | 9.71254 | 14456 ft | 327 kts | 206° |
| 2026-05-04 14:17 | 50.60292 | 9.68097 | 13627 ft | 324 kts | 206° |
| 2026-05-04 14:17 | 50.58309 | 9.66443 | 13183 ft | 321 kts | 215° |
| 2026-05-04 14:17 | 50.55130 | 9.61575 | 12633 ft | 318 kts | 225° |
| 2026-05-04 14:18 | 50.53601 | 9.59075 | 12371 ft | 316 kts | 225° |
| 2026-05-04 14:18 | 50.50563 | 9.54103 | 11863 ft | 315 kts | 226° |
| 2026-05-04 14:19 | 50.47548 | 9.49171 | 11361 ft | 311 kts | 225° |
| 2026-05-04 14:19 | 50.46055 | 9.46732 | 11177 ft | 309 kts | 225° |
| 2026-05-04 14:19 | 50.44562 | 9.44305 | 11001 ft | 309 kts | 225° |
| 2026-05-04 14:19 | 50.43074 | 9.41895 | 10713 ft | 306 kts | 225° |
| 2026-05-04 14:20 | 50.41599 | 9.39503 | 10342 ft | 302 kts | 225° |
| 2026-05-04 14:20 | 50.40149 | 9.37147 | 10084 ft | 296 kts | 225° |
| 2026-05-04 14:20 | 50.38728 | 9.34836 | 9960 ft | 285 kts | 225° |
| 2026-05-04 14:21 | 50.36057 | 9.30495 | 9477 ft | 273 kts | 225° |
| 2026-05-04 14:21 | 50.34738 | 9.28362 | 9107 ft | 272 kts | 225° |
| 2026-05-04 14:21 | 50.33426 | 9.26247 | 8747 ft | 270 kts | 225° |
| 2026-05-04 14:21 | 50.32126 | 9.24152 | 8402 ft | 268 kts | 225° |
| 2026-05-04 14:22 | 50.30831 | 9.22063 | 8023 ft | 267 kts | 226° |
| 2026-05-04 14:22 | 50.29541 | 9.19978 | 7708 ft | 266 kts | 226° |
| 2026-05-04 14:22 | 50.28252 | 9.17898 | 7450 ft | 266 kts | 225° |
| 2026-05-04 14:22 | 50.26964 | 9.15831 | 7202 ft | 265 kts | 226° |
| 2026-05-04 14:23 | 50.24416 | 9.11734 | 6724 ft | 257 kts | 226° |
| 2026-05-04 14:23 | 50.23193 | 9.09767 | 6553 ft | 248 kts | 226° |
| 2026-05-04 14:23 | 50.22010 | 9.07871 | 6380 ft | 241 kts | 226° |
| 2026-05-04 14:24 | 50.20858 | 9.06028 | 6210 ft | 234 kts | 226° |
| 2026-05-04 14:24 | 50.19734 | 9.04232 | 6023 ft | 230 kts | 226° |
| 2026-05-04 14:24 | 50.18615 | 9.02446 | 5848 ft | 229 kts | 226° |
| 2026-05-04 14:24 | 50.17502 | 9.00672 | 5665 ft | 229 kts | 226° |
| 2026-05-04 14:25 | 50.16392 | 8.98900 | 5506 ft | 227 kts | 226° |
| 2026-05-04 14:25 | 50.14456 | 8.95076 | 5252 ft | 226 kts | 246° |
| 2026-05-04 14:25 | 50.13901 | 8.92825 | 5152 ft | 216 kts | 250° |
| 2026-05-04 14:26 | 50.13408 | 8.90675 | 5046 ft | 207 kts | 250° |
| 2026-05-04 14:26 | 50.12918 | 8.88575 | 5015 ft | 205 kts | 250° |
| 2026-05-04 14:26 | 50.12431 | 8.86497 | 4957 ft | 203 kts | 250° |
| 2026-05-04 14:26 | 50.11950 | 8.84454 | 4753 ft | 198 kts | 250° |
| 2026-05-04 14:27 | 50.11486 | 8.82483 | 4491 ft | 189 kts | 250° |
| 2026-05-04 14:27 | 50.11038 | 8.80582 | 4214 ft | 181 kts | 250° |
| 2026-05-04 14:27 | 50.10607 | 8.78756 | 3960 ft | 179 kts | 250° |
| 2026-05-04 14:27 | 50.10177 | 8.76934 | 3707 ft | 178 kts | 250° |
| 2026-05-04 14:28 | 50.09752 | 8.75134 | 3459 ft | 176 kts | 250° |
| 2026-05-04 14:28 | 50.09324 | 8.73323 | 3221 ft | 179 kts | 250° |
| 2026-05-04 14:28 | 50.08897 | 8.71518 | 2988 ft | 178 kts | 251° |
| 2026-05-04 14:28 | 50.08467 | 8.69718 | 2742 ft | 178 kts | 251° |
| 2026-05-04 14:29 | 50.07641 | 8.66238 | 2238 ft | 158 kts | 251° |
| 2026-05-04 14:29 | 50.06952 | 8.63291 | 1853 ft | 137 kts | 251° |
| 2026-05-04 14:30 | 50.06621 | 8.61913 | 1616 ft | 136 kts | 249° |
| 2026-05-04 14:30 | 50.06295 | 8.60540 | 1399 ft | 135 kts | 251° |
| 2026-05-04 14:30 | 50.05646 | 8.57805 | 1033 ft | 136 kts | 250° |
| 2026-05-04 14:31 | 50.05315 | 8.56420 | 818 ft | 137 kts | 249° |
| 2026-05-04 14:31 | 50.04647 | 8.53633 | 458 ft | 137 kts | 246° |
| 2026-05-04 14:32 | 50.04071 | 8.51242 | 327 ft | 74 kts | 250° |
| 2026-05-04 14:32 | 50.03956 | 8.50760 | 324 ft | 31 kts | 249° |
| 2026-05-04 14:32 | 50.03886 | 8.50494 | 321 ft | 23 kts | 240° |
| 2026-05-04 14:32 | 50.03786 | 8.50305 | 320 ft | 20 kts | 222° |
| 2026-05-04 14:33 | 50.03700 | 8.50196 | 319 ft | 11 kts | 217° |
| 2026-05-04 14:33 | 50.03649 | 8.50182 | 321 ft | 7 kts | 159° |
| 2026-05-04 14:33 | 50.03626 | 8.50264 | 325 ft | 11 kts | 85° |
| 2026-05-04 14:33 | 50.03656 | 8.50400 | 326 ft | 16 kts | 70° |
| 2026-05-04 14:34 | 50.03683 | 8.50514 | 325 ft | 17 kts | 70° |
| 2026-05-04 14:34 | 50.03725 | 8.50691 | 329 ft | 17 kts | 69° |
| 2026-05-04 14:34 | 50.03767 | 8.50867 | 330 ft | 18 kts | 69° |
| 2026-05-04 14:34 | 50.03811 | 8.51048 | 333 ft | 18 kts | 69° |
| 2026-05-04 14:35 | 50.03857 | 8.51238 | 332 ft | 20 kts | 69° |
| 2026-05-04 14:35 | 50.03906 | 8.51443 | 333 ft | 20 kts | 70° |
| 2026-05-04 14:35 | 50.03953 | 8.51642 | 332 ft | 19 kts | 69° |
| 2026-05-04 14:35 | 50.03999 | 8.51834 | 334 ft | 19 kts | 70° |
| 2026-05-04 14:36 | 50.04045 | 8.52027 | 337 ft | 19 kts | 69° |
| 2026-05-04 14:36 | 50.04092 | 8.52222 | 346 ft | 19 kts | 69° |
| 2026-05-04 14:36 | 50.04139 | 8.52419 | 346 ft | 19 kts | 69° |
| 2026-05-04 14:36 | 50.04186 | 8.52615 | 357 ft | 19 kts | 70° |
| 2026-05-04 14:37 | 50.04233 | 8.52811 | 355 ft | 19 kts | 69° |
| 2026-05-04 14:37 | 50.04280 | 8.53009 | 356 ft | 20 kts | 69° |
| 2026-05-04 14:37 | 50.04326 | 8.53201 | 365 ft | 17 kts | 69° |
| 2026-05-04 14:37 | 50.04370 | 8.53379 | 373 ft | 18 kts | 69° |
| 2026-05-04 14:38 | 50.04398 | 8.53545 | 375 ft | 15 kts | 85° |
| 2026-05-04 14:38 | 50.04408 | 8.53718 | 375 ft | 17 kts | 84° |
| 2026-05-04 14:38 | 50.04421 | 8.53910 | 375 ft | 19 kts | 84° |
| 2026-05-04 14:38 | 50.04435 | 8.54113 | 375 ft | 19 kts | 84° |
| 2026-05-04 14:39 | 50.04448 | 8.54305 | 375 ft | 16 kts | 84° |
| 2026-05-04 14:39 | 50.04453 | 8.54457 | 370 ft | 12 kts | 93° |
| 2026-05-04 14:39 | 50.04437 | 8.54568 | 367 ft | 16 kts | 112° |
| 2026-05-04 14:40 | 50.04298 | 8.54781 | 361 ft | 15 kts | 159° |
| 2026-05-04 14:40 | 50.04206 | 8.54832 | 358 ft | 12 kts | 160° |
| 2026-05-04 14:40 | 50.04134 | 8.54873 | 352 ft | 11 kts | 160° |
| 2026-05-04 14:40 | 50.04093 | 8.54897 | 357 ft | 0 kts | 159° |
| 2026-05-04 14:42 | 50.04077 | 8.54906 | 351 ft | 6 kts | 159° |
| 2026-05-04 14:42 | 50.04021 | 8.54939 | 357 ft | 12 kts | 159° |
| 2026-05-04 14:43 | 50.03944 | 8.54983 | 356 ft | 11 kts | 159° |
| 2026-05-04 14:43 | 50.03874 | 8.55025 | 356 ft | 8 kts | 157° |
| 2026-05-04 14:43 | 50.03847 | 8.55095 | 353 ft | 8 kts | 89° |
| 2026-05-04 14:43 | 50.03866 | 8.55183 | 355 ft | 11 kts | 70° |
| 2026-05-04 14:44 | 50.03900 | 8.55326 | 356 ft | 16 kts | 69° |
| 2026-05-04 14:44 | 50.03941 | 8.55497 | 356 ft | 17 kts | 69° |
| 2026-05-04 14:44 | 50.03986 | 8.55687 | 357 ft | 20 kts | 70° |
| 2026-05-04 14:44 | 50.04034 | 8.55893 | 356 ft | 21 kts | 69° |
| 2026-05-04 14:45 | 50.04085 | 8.56105 | 357 ft | 21 kts | 70° |
| 2026-05-04 14:45 | 50.04134 | 8.56308 | 355 ft | 20 kts | 70° |
| 2026-05-04 14:45 | 50.04180 | 8.56500 | 357 ft | 19 kts | 69° |
| 2026-05-04 14:45 | 50.04226 | 8.56693 | 364 ft | 19 kts | 70° |
| 2026-05-04 14:46 | 50.04271 | 8.56884 | 362 ft | 19 kts | 69° |
| 2026-05-04 14:46 | 50.04319 | 8.57086 | 367 ft | 20 kts | 69° |
| 2026-05-04 14:46 | 50.04370 | 8.57296 | 367 ft | 21 kts | 69° |
| 2026-05-04 14:46 | 50.04421 | 8.57505 | 361 ft | 20 kts | 70° |
| 2026-05-04 14:47 | 50.04467 | 8.57697 | 367 ft | 18 kts | 69° |
| 2026-05-04 14:47 | 50.04509 | 8.57876 | 366 ft | 15 kts | 70° |
| 2026-05-04 14:47 | 50.04535 | 8.57982 | 366 ft | 9 kts | 63° |
| 2026-05-04 14:47 | 50.04591 | 8.58024 | 360 ft | 11 kts | 353° |
| 2026-05-04 14:48 | 50.04669 | 8.57980 | 360 ft | 12 kts | 339° |
| 2026-05-04 14:48 | 50.04729 | 8.57951 | 363 ft | 8 kts | 355° |